createdAt,value
2023-05-06T00:01:25.541Z,101507.86
2023-05-06T00:03:54.237Z,101503.90
2023-05-06T00:06:22.561Z,101498.56
2023-05-06T00:08:50.780Z,101497.75
2023-05-06T00:11:18.794Z,101500.98
2023-05-06T00:13:46.817Z,101502.65
2023-05-06T00:16:15.456Z,101499.90
2023-05-06T00:18:43.690Z,101497.85
2023-05-06T00:21:11.670Z,101496.39
2023-05-06T00:23:39.699Z,101497.69
2023-05-06T00:26:07.713Z,101493.27
2023-05-06T00:28:35.859Z,101497.05
2023-05-06T00:31:03.852Z,101496.97
2023-05-06T00:33:31.994Z,101495.31
2023-05-06T00:36:00.125Z,101495.38
2023-05-06T00:38:28.308Z,101498.94
2023-05-06T00:40:56.739Z,101495.14
2023-05-06T00:43:24.853Z,101494.84
2023-05-06T00:45:53.200Z,101495.75
2023-05-06T00:48:21.800Z,101494.87
2023-05-06T00:50:50.026Z,101494.06
2023-05-06T00:53:23.517Z,101492.24
2023-05-06T00:55:51.672Z,101489.72
2023-05-06T00:58:20.708Z,101494.13
2023-05-06T01:00:52.483Z,101493.74
2023-05-06T01:03:21.151Z,101492.16
2023-05-06T01:06:15.305Z,101488.33
2023-05-06T01:09:06.177Z,101489.85
2023-05-06T01:11:45.728Z,101484.87
2023-05-06T01:14:41.646Z,101488.70
2023-05-06T01:17:13.155Z,101482.72
2023-05-06T01:19:49.125Z,101486.08
2023-05-06T01:22:18.467Z,101478.17
2023-05-06T01:24:47.079Z,101477.79
2023-05-06T01:27:17.011Z,101478.66
2023-05-06T01:29:47.335Z,101479.48
2023-05-06T01:32:18.356Z,101474.67
2023-05-06T01:35:00.024Z,101474.23
2023-05-06T01:37:37.276Z,101474.27
2023-05-06T01:40:07.753Z,101474.38
2023-05-06T01:42:38.032Z,101469.90
2023-05-06T01:45:08.624Z,101468.42
2023-05-06T01:47:40.849Z,101468.88
2023-05-06T01:50:10.017Z,101473.64
2023-05-06T01:52:38.036Z,101473.98
2023-05-06T01:55:07.132Z,101475.75
2023-05-06T01:57:35.883Z,101477.02
2023-05-06T02:00:04.115Z,101475.63
2023-05-06T02:02:40.468Z,101475.56
2023-05-06T02:05:09.000Z,101476.56
2023-05-06T02:07:39.434Z,101476.17
2023-05-06T02:10:08.975Z,101476.83
2023-05-06T02:12:39.881Z,101473.38
2023-05-06T02:15:09.241Z,101477.10
2023-05-06T02:17:38.742Z,101471.59
2023-05-06T02:20:09.691Z,101470.92
2023-05-06T02:22:37.752Z,101470.17
2023-05-06T02:25:06.620Z,101472.59
2023-05-06T04:47:44.770Z,101557.25
2023-05-06T04:50:13.749Z,101554.77
2023-05-06T04:52:42.662Z,101555.88
2023-05-06T04:55:12.572Z,101554.81
2023-05-06T04:57:45.540Z,101556.02
2023-05-06T05:00:14.755Z,101557.12
2023-05-06T05:02:43.248Z,101563.95
2023-05-06T05:05:12.710Z,101565.49
2023-05-06T05:07:41.618Z,101568.98
2023-05-06T05:10:10.836Z,101567.08
2023-05-06T05:12:39.815Z,101569.96
2023-05-06T05:15:08.678Z,101570.72
2023-05-06T05:17:38.448Z,101573.23
2023-05-06T05:20:08.037Z,101581.64
2023-05-06T05:22:37.459Z,101581.13
2023-05-06T05:25:08.326Z,101587.06
2023-05-06T05:27:37.025Z,101587.23
2023-05-06T05:30:05.912Z,101591.36
2023-05-06T05:32:34.769Z,101593.23
2023-05-06T05:35:03.880Z,101598.83
2023-05-06T05:37:32.102Z,101600.72
2023-05-06T05:40:00.163Z,101602.20
2023-05-06T05:42:28.256Z,101602.29
2023-05-06T05:44:57.465Z,101603.27
2023-05-06T05:47:26.413Z,101603.95
2023-05-06T05:49:55.110Z,101604.41
2023-05-06T05:52:24.834Z,101607.06
2023-05-06T05:54:52.950Z,101608.84
2023-05-06T05:57:21.473Z,101608.88
2023-05-06T05:59:49.593Z,101613.81
2023-05-06T06:02:18.123Z,101616.38
2023-05-06T06:04:46.317Z,101615.40
2023-05-06T06:07:14.457Z,101617.71
2023-05-06T06:09:46.837Z,101619.36
2023-05-06T06:12:15.717Z,101621.06
2023-05-06T06:14:48.144Z,101623.77
2023-05-06T06:17:18.268Z,101620.59
2023-05-06T06:19:47.318Z,101623.41
2023-05-06T06:22:15.315Z,101621.81
2023-05-06T06:24:43.979Z,101625.72
2023-05-06T06:27:12.458Z,101628.61
2023-05-06T06:29:40.881Z,101628.13
2023-05-06T06:32:09.054Z,101626.66
2023-05-06T06:34:37.122Z,101626.45
2023-05-06T06:37:06.730Z,101629.55
2023-05-06T06:39:35.972Z,101628.86
2023-05-06T06:42:04.489Z,101628.65
2023-05-06T06:44:37.432Z,101631.98
2023-05-06T06:47:05.547Z,101634.80
2023-05-06T06:49:33.598Z,101634.45
2023-05-06T06:52:01.586Z,101637.88
2023-05-06T06:54:29.810Z,101649.32
2023-05-06T06:56:57.828Z,101656.64
2023-05-06T06:59:25.815Z,101664.27
2023-05-06T07:01:53.864Z,101667.33
2023-05-06T07:04:21.971Z,101672.55
2023-05-06T07:06:50.006Z,101672.27
2023-05-06T07:09:18.167Z,101678.95
2023-05-06T07:11:46.248Z,101675.73
2023-05-06T07:14:14.376Z,101679.53
2023-05-06T07:16:44.520Z,101676.05
2023-05-06T07:19:14.121Z,101673.90
2023-05-06T07:21:42.340Z,101673.84
2023-05-06T07:24:10.370Z,101672.13
2023-05-06T07:26:38.677Z,101675.69
2023-05-06T07:29:06.697Z,101676.56
2023-05-06T07:31:34.893Z,101674.65
2023-05-06T07:34:02.933Z,101672.58
2023-05-06T07:36:36.117Z,101676.04
2023-05-06T07:39:05.698Z,101673.52
2023-05-06T07:41:33.920Z,101681.80
2023-05-06T07:44:02.344Z,101683.89
2023-05-06T07:46:30.581Z,101682.77
2023-05-06T07:48:58.883Z,101686.85
2023-05-06T07:51:27.133Z,101689.09
2023-05-06T07:53:55.221Z,101692.86
2023-05-06T07:56:23.241Z,101693.27
2023-05-06T07:58:51.467Z,101695.22
2023-05-06T08:01:19.385Z,101699.04
2023-05-06T08:03:47.640Z,101701.23
2023-05-06T08:06:15.822Z,101704.79
2023-05-06T08:08:44.048Z,101703.80
2023-05-06T08:11:12.063Z,101705.06
2023-05-06T08:13:40.182Z,101701.43
2023-05-06T08:16:08.379Z,101704.45
2023-05-06T08:18:36.429Z,101707.59
2023-05-06T08:21:04.960Z,101709.57
2023-05-06T08:23:33.065Z,101713.92
2023-05-06T08:26:02.189Z,101718.30
2023-05-06T08:28:30.309Z,101723.52
2023-05-06T08:30:58.331Z,101720.72
2023-05-06T08:33:26.451Z,101723.60
2023-05-06T08:35:57.784Z,101727.15
2023-05-06T08:38:26.648Z,101729.70
2023-05-06T08:40:55.024Z,101726.88
2023-05-06T08:43:26.297Z,101729.91
2023-05-06T08:45:55.611Z,101733.22
2023-05-06T08:48:23.695Z,101732.50
2023-05-06T08:50:54.811Z,101738.13
2023-05-06T08:53:23.248Z,101738.47
2023-05-06T08:55:53.983Z,101743.63
2023-05-06T08:58:24.915Z,101742.16
2023-05-06T09:00:53.083Z,101741.33
2023-05-06T09:03:21.434Z,101740.19
2023-05-06T09:05:49.667Z,101736.67
2023-05-06T09:08:17.788Z,101736.36
2023-05-06T09:10:46.367Z,101739.69
2023-05-06T09:13:19.957Z,101741.98
2023-05-06T09:15:49.271Z,101741.56
2023-05-06T09:18:17.392Z,101743.57
2023-05-06T09:20:47.742Z,101745.34
2023-05-06T09:23:18.068Z,101744.05
2023-05-06T09:25:47.987Z,101746.96
2023-05-06T09:28:16.000Z,101747.97
2023-05-06T09:30:47.680Z,101750.73
2023-05-06T09:33:16.308Z,101748.13
2023-05-06T09:35:44.575Z,101749.20
2023-05-06T09:38:12.681Z,101746.20
2023-05-06T09:40:41.015Z,101745.34
2023-05-06T09:43:10.221Z,101743.02
2023-05-06T09:45:39.067Z,101742.00
2023-05-06T09:48:08.634Z,101742.34
2023-05-06T09:50:37.010Z,101743.24
2023-05-06T09:53:06.033Z,101744.70
2023-05-06T09:55:35.552Z,101749.71
2023-05-06T09:58:06.433Z,101747.80
2023-05-06T10:00:35.716Z,101748.75
2023-05-06T10:03:05.187Z,101750.83
2023-05-06T10:05:35.123Z,101754.63
2023-05-06T10:08:04.584Z,101753.26
2023-05-06T10:10:34.508Z,101751.98
2023-05-06T10:13:04.787Z,101752.63
2023-05-06T10:15:33.458Z,101755.61
2023-05-06T10:18:02.122Z,101753.05
2023-05-06T10:20:31.707Z,101753.92
2023-05-06T10:23:14.985Z,101758.69
2023-05-06T10:25:45.019Z,101757.45
2023-05-06T10:28:26.268Z,101759.01
2023-05-06T10:31:00.167Z,101759.27
2023-05-06T10:33:29.337Z,101759.52
2023-05-06T10:36:20.655Z,101759.63
2023-05-06T10:38:56.994Z,101762.05
2023-05-06T10:41:28.131Z,101760.98
2023-05-06T10:43:57.784Z,101759.10
2023-05-06T10:46:27.957Z,101757.90
2023-05-06T10:49:06.401Z,101758.29
2023-05-06T10:51:43.977Z,101756.14
2023-05-06T10:54:32.266Z,101759.52
2023-05-06T10:57:10.672Z,101761.56
2023-05-06T10:59:46.297Z,101759.48
2023-05-06T11:02:16.881Z,101759.51
2023-05-06T11:04:51.971Z,101759.41
2023-05-06T11:07:24.172Z,101755.98
2023-05-06T11:10:01.103Z,101758.42
2023-05-06T11:12:47.740Z,101756.16
2023-05-06T11:15:19.764Z,101761.84
2023-05-06T11:17:47.874Z,101764.65
2023-05-06T11:20:23.042Z,101762.02
2023-05-06T11:22:52.031Z,101759.47
2023-05-06T11:25:47.846Z,101756.44
2023-05-06T11:28:16.192Z,101755.04
2023-05-06T11:30:54.023Z,101752.84
2023-05-06T11:33:24.754Z,101751.61
2023-05-06T11:35:53.374Z,101747.34
2023-05-06T11:38:21.497Z,101748.23
2023-05-06T11:40:49.624Z,101742.23
2023-05-06T11:43:17.736Z,101736.39
2023-05-06T11:45:50.808Z,101740.34
2023-05-06T11:48:18.989Z,101737.16
2023-05-06T11:50:48.704Z,101736.27
2023-05-06T11:53:19.229Z,101735.55
2023-05-06T11:55:49.472Z,101736.30
2023-05-06T11:58:28.932Z,101732.98
2023-05-06T12:00:59.220Z,101727.56
2023-05-06T12:03:29.517Z,101721.15
2023-05-06T12:05:58.010Z,101717.71
2023-05-06T12:08:36.386Z,101715.17
2023-05-06T12:11:09.096Z,101716.79
2023-05-06T12:13:37.938Z,101721.60
2023-05-06T12:16:08.428Z,101720.84
2023-05-06T12:18:36.570Z,101721.92
2023-05-06T12:21:04.688Z,101719.68
2023-05-06T12:23:33.171Z,101718.90
2023-05-06T12:26:06.836Z,101716.40
2023-05-06T12:28:37.092Z,101714.88
2023-05-06T12:31:24.263Z,101715.45
2023-05-06T12:33:53.307Z,101718.29
2023-05-06T12:36:22.911Z,101718.27
2023-05-06T12:38:54.384Z,101718.70
2023-05-06T12:41:24.377Z,101713.52
2023-05-06T12:43:53.091Z,101717.44
2023-05-06T12:46:21.376Z,101717.64
2023-05-06T12:49:00.546Z,101719.50
2023-05-06T12:51:30.909Z,101714.56
2023-05-06T12:53:59.024Z,101715.83
2023-05-06T12:56:27.041Z,101718.23
2023-05-06T12:58:59.073Z,101721.98
2023-05-06T13:01:27.367Z,101727.61
2023-05-06T13:03:57.560Z,101728.98
2023-05-06T13:06:25.750Z,101732.55
2023-05-06T13:08:53.659Z,101731.35
2023-05-06T13:11:22.459Z,101735.74
2023-05-06T13:13:50.701Z,101741.14
2023-05-06T13:16:18.858Z,101739.93
2023-05-06T13:18:47.047Z,101736.59
2023-05-06T13:21:15.163Z,101733.58
2023-05-06T13:23:47.710Z,101735.94
2023-05-06T13:26:16.132Z,101736.42
2023-05-06T13:28:44.236Z,101735.30
2023-05-06T13:31:12.278Z,101732.81
2023-05-06T13:33:40.283Z,101730.48
2023-05-06T13:36:08.920Z,101731.73
2023-05-06T13:38:36.926Z,101731.78
2023-05-06T13:41:05.945Z,101724.39
2023-05-06T13:43:33.967Z,101721.86
2023-05-06T13:46:02.037Z,101722.82
2023-05-06T13:48:30.005Z,101724.73
2023-05-06T13:50:58.323Z,101723.91
2023-05-06T13:53:26.576Z,101723.98
2023-05-06T13:55:54.567Z,101722.71
2023-05-06T13:58:22.586Z,101720.58
2023-05-06T14:00:50.749Z,101716.98
2023-05-06T14:03:18.725Z,101715.34
2023-05-06T14:05:46.741Z,101710.98
2023-05-06T14:08:14.767Z,101711.19
2023-05-06T14:10:42.785Z,101710.30
2023-05-06T14:13:11.622Z,101714.80
2023-05-06T14:15:39.727Z,101713.33
2023-05-06T14:18:07.782Z,101719.06
2023-05-06T14:20:36.084Z,101714.69
2023-05-06T14:23:07.089Z,101710.94
2023-05-06T14:25:35.118Z,101712.35
2023-05-06T14:28:03.351Z,101711.20
2023-05-06T14:30:32.560Z,101716.16
2023-05-06T14:33:00.728Z,101714.64
2023-05-06T14:35:28.796Z,101716.30
2023-05-06T14:37:56.813Z,101713.92
2023-05-06T14:40:25.029Z,101713.42
2023-05-06T14:42:53.755Z,101708.13
2023-05-06T14:45:21.779Z,101709.47
2023-05-06T14:47:49.919Z,101708.88
2023-05-06T14:50:18.636Z,101707.90
2023-05-06T14:52:46.850Z,101708.48
2023-05-06T14:55:15.164Z,101710.95
2023-05-06T14:57:43.080Z,101710.08
2023-05-06T15:00:14.941Z,101711.58
2023-05-06T15:02:43.258Z,101711.92
2023-05-06T15:05:12.263Z,101706.96
2023-05-06T15:07:40.884Z,101710.30
2023-05-06T15:10:09.298Z,101710.42
2023-05-06T15:12:37.622Z,101710.88
2023-05-06T15:15:06.744Z,101711.65
2023-05-06T15:17:34.984Z,101713.91
2023-05-06T15:20:04.587Z,101713.77
2023-05-06T15:22:32.612Z,101716.68
2023-05-06T15:25:01.665Z,101715.39
2023-05-06T15:27:30.856Z,101718.92
2023-05-06T15:30:04.234Z,101721.23
2023-05-06T15:32:32.340Z,101720.71
2023-05-06T15:35:01.244Z,101720.33
2023-05-06T15:37:29.267Z,101720.86
2023-05-06T15:39:57.781Z,101724.86
2023-05-06T15:42:26.007Z,101721.88
2023-05-06T15:44:55.225Z,101720.13
2023-05-06T15:47:23.298Z,101717.41
2023-05-06T15:49:54.872Z,101719.55
2023-05-06T15:52:23.608Z,101719.64
2023-05-06T15:54:51.786Z,101721.61
2023-05-06T15:57:19.845Z,101721.86
2023-05-06T15:59:47.859Z,101724.41
2023-05-06T16:04:47.154Z,101729.09
2023-05-06T16:07:15.927Z,101729.39
2023-05-06T16:09:44.752Z,101728.95
2023-05-06T16:12:14.776Z,101728.08
2023-05-06T16:14:42.813Z,101723.91
2023-05-06T16:17:10.920Z,101727.71
2023-05-06T16:19:38.942Z,101728.54
2023-05-06T16:22:06.968Z,101729.85
2023-05-06T16:24:34.975Z,101727.45
2023-05-06T16:27:03.098Z,101725.37
2023-05-06T16:29:31.516Z,101721.59
2023-05-06T16:32:00.857Z,101718.98
2023-05-06T16:34:28.998Z,101716.95
2023-05-06T16:36:58.388Z,101717.15
2023-05-06T16:39:26.506Z,101716.09
2023-05-06T16:41:54.521Z,101719.90
2023-05-06T16:44:22.558Z,101722.06
2023-05-06T16:46:50.575Z,101722.98
2023-05-06T16:49:21.213Z,101727.70
2023-05-06T16:51:49.216Z,101734.63
2023-05-06T16:54:17.441Z,101736.69
2023-05-06T16:56:52.158Z,101739.31
2023-05-06T16:59:22.383Z,101736.00
2023-05-06T17:01:51.024Z,101733.55
2023-05-06T17:04:19.159Z,101735.88
2023-05-06T17:06:47.443Z,101737.06
2023-05-06T17:09:15.588Z,101742.80
2023-05-06T17:11:44.050Z,101748.14
2023-05-06T17:14:12.024Z,101746.20
2023-05-06T17:16:40.786Z,101746.73
2023-05-06T17:19:09.164Z,101750.95
2023-05-06T17:21:37.189Z,101758.48
2023-05-06T17:24:06.216Z,101760.63
2023-05-06T17:26:35.286Z,101758.52
2023-05-06T17:29:03.456Z,101763.34
2023-05-06T17:31:31.491Z,101764.33
2023-05-06T17:33:59.792Z,101767.55
2023-05-06T17:36:28.111Z,101769.52
2023-05-06T17:39:06.082Z,101771.45
2023-05-06T17:41:34.195Z,101778.39
2023-05-06T17:44:02.157Z,101781.23
2023-05-06T17:46:31.428Z,101784.91
2023-05-06T17:48:59.657Z,101789.77
2023-05-06T17:51:27.669Z,101786.55
2023-05-06T17:53:56.004Z,101791.15
2023-05-06T17:56:24.615Z,101797.95
2023-05-06T17:58:53.037Z,101798.23
2023-05-06T18:01:21.071Z,101795.90
2023-05-06T18:03:49.433Z,101798.20
2023-05-06T18:06:18.802Z,101800.46
2023-05-06T18:08:47.222Z,101799.17
2023-05-06T18:11:16.246Z,101803.14
2023-05-06T18:13:44.370Z,101811.19
2023-05-06T18:16:12.424Z,101813.40
2023-05-06T18:18:40.605Z,101823.16
2023-05-06T18:21:08.623Z,101822.92
2023-05-06T18:23:36.656Z,101823.10
2023-05-06T18:26:05.962Z,101829.81
2023-05-06T18:28:37.055Z,101830.81
2023-05-06T18:31:06.781Z,101831.56
2023-05-06T18:33:35.946Z,101829.73
2023-05-06T18:36:04.089Z,101827.15
2023-05-06T18:38:32.203Z,101826.71
2023-05-06T18:41:02.020Z,101826.63
2023-05-06T18:43:30.933Z,101825.98
2023-05-06T18:45:59.114Z,101824.66
2023-05-06T18:48:27.274Z,101828.02
2023-05-06T18:50:55.498Z,101826.04
2023-05-06T18:53:23.523Z,101826.34
2023-05-06T18:55:51.835Z,101819.10
2023-05-06T18:58:19.969Z,101815.89
2023-05-06T19:00:48.021Z,101816.50
2023-05-06T19:03:16.100Z,101809.13
2023-05-06T19:05:44.122Z,101810.39
2023-05-06T19:08:13.946Z,101810.70
2023-05-06T19:10:41.964Z,101809.48
2023-05-06T19:13:10.049Z,101806.69
2023-05-06T19:15:38.116Z,101807.27
2023-05-06T19:18:07.165Z,101809.30
2023-05-06T19:20:35.750Z,101806.48
2023-05-06T19:23:04.921Z,101809.13
2023-05-06T19:25:36.608Z,101808.59
2023-05-06T19:28:05.834Z,101807.83
2023-05-06T19:30:35.713Z,101809.17
2023-05-06T19:33:04.638Z,101813.84
2023-05-06T19:35:32.802Z,101813.96
2023-05-06T19:38:00.916Z,101811.66
2023-05-06T19:40:29.237Z,101812.00
2023-05-06T19:43:03.787Z,101810.83
2023-05-06T19:45:33.161Z,101807.13
2023-05-06T19:48:04.239Z,101806.85
2023-05-06T19:50:35.502Z,101807.09
2023-05-06T19:53:03.608Z,101802.27
2023-05-06T19:55:32.210Z,101803.84
2023-05-06T19:58:00.645Z,101801.83
2023-05-06T20:00:30.410Z,101802.09
2023-05-06T20:03:00.122Z,101803.53
2023-05-06T20:05:32.082Z,101800.72
2023-05-06T20:08:00.551Z,101799.71
2023-05-06T20:10:29.058Z,101797.16
2023-05-06T20:12:57.982Z,101797.23
2023-05-06T20:15:26.849Z,101804.73
2023-05-06T20:17:54.984Z,101805.72
2023-05-06T20:20:23.249Z,101802.92
2023-05-06T20:22:51.281Z,101805.66
2023-05-06T20:25:19.758Z,101803.98
2023-05-06T20:27:47.599Z,101798.86
2023-05-06T20:30:15.690Z,101795.68
2023-05-06T20:32:43.881Z,101796.26
2023-05-06T20:35:14.076Z,101794.35
2023-05-06T20:37:42.196Z,101797.75
2023-05-06T20:40:10.921Z,101797.15
2023-05-06T20:42:38.938Z,101798.88
2023-05-06T20:45:07.852Z,101802.74
2023-05-06T20:47:36.714Z,101800.37
2023-05-06T20:50:05.399Z,101803.02
2023-05-06T20:52:34.333Z,101806.44
2023-05-06T20:55:03.427Z,101804.14
2023-05-06T20:57:31.462Z,101805.00
2023-05-06T20:59:59.685Z,101806.13
2023-05-06T21:02:30.183Z,101807.52
2023-05-06T21:04:58.334Z,101808.05
2023-05-06T21:07:26.354Z,101809.39
2023-05-06T21:09:54.367Z,101808.64
2023-05-06T21:12:22.395Z,101806.85
2023-05-06T21:14:50.410Z,101809.61
2023-05-06T21:17:18.460Z,101811.58
2023-05-06T21:19:48.763Z,101811.88
2023-05-06T21:22:16.772Z,101813.52
2023-05-06T21:24:44.793Z,101814.67
2023-05-06T21:27:12.818Z,101812.93
2023-05-06T21:29:40.838Z,101813.65
2023-05-06T21:32:08.955Z,101812.27
2023-05-06T21:34:36.975Z,101813.63
2023-05-06T21:37:05.111Z,101813.59
2023-05-06T21:39:33.114Z,101815.33
2023-05-06T21:42:01.443Z,101813.79
2023-05-06T21:44:29.454Z,101811.82
2023-05-06T21:46:57.514Z,101813.36
2023-05-06T21:49:25.630Z,101814.98
2023-05-06T21:51:53.614Z,101814.81
2023-05-06T21:54:21.836Z,101815.73
2023-05-06T21:56:50.049Z,101818.77
2023-05-06T21:59:19.872Z,101820.06
2023-05-06T22:01:48.379Z,101819.36
2023-05-06T22:04:16.981Z,101823.43
2023-05-06T22:06:45.142Z,101827.51
2023-05-06T22:09:13.361Z,101829.07
2023-05-06T22:11:41.484Z,101830.46
2023-05-06T22:14:09.647Z,101831.77
2023-05-06T22:16:41.683Z,101829.05
2023-05-06T22:19:09.757Z,101835.97
2023-05-06T22:21:37.877Z,101832.95
2023-05-06T22:24:06.404Z,101833.52
2023-05-06T22:26:34.441Z,101835.75
2023-05-06T22:29:02.443Z,101839.30
2023-05-06T22:31:30.606Z,101837.16
2023-05-06T22:34:03.718Z,101836.72
2023-05-06T22:36:34.833Z,101839.77
2023-05-06T22:39:03.149Z,101836.74
2023-05-06T22:41:31.363Z,101835.50
2023-05-06T22:44:00.215Z,101834.96
2023-05-06T22:46:29.296Z,101832.95
2023-05-06T22:48:58.132Z,101827.77
2023-05-06T22:51:26.263Z,101832.60
2023-05-06T22:53:54.274Z,101831.88
2023-05-06T22:56:22.294Z,101830.67
2023-05-06T22:58:50.407Z,101828.45
2023-05-06T23:01:18.805Z,101829.39
2023-05-06T23:03:46.953Z,101829.54
2023-05-06T23:06:15.072Z,101827.66
2023-05-06T23:08:43.095Z,101827.92
2023-05-06T23:11:11.107Z,101828.57
2023-05-06T23:13:39.129Z,101830.15
2023-05-06T23:16:07.962Z,101826.05
2023-05-06T23:18:36.774Z,101825.54
2023-05-06T23:21:05.199Z,101824.45
2023-05-06T23:23:33.217Z,101819.52
2023-05-06T23:26:01.235Z,101819.98
2023-05-06T23:28:29.572Z,101818.27
2023-05-06T23:30:57.776Z,101818.22
2023-05-06T23:33:25.897Z,101818.15
2023-05-06T23:35:53.917Z,101821.30
2023-05-06T23:38:21.940Z,101816.11
2023-05-06T23:40:49.959Z,101814.21
2023-05-06T23:43:17.977Z,101812.58
2023-05-06T23:45:46.151Z,101808.59
2023-05-06T23:48:14.216Z,101805.77
2023-05-06T23:50:42.242Z,101802.16
2023-05-06T23:53:10.357Z,101800.30
2023-05-06T23:55:38.476Z,101802.32
2023-05-06T23:58:06.494Z,101801.33
